Terminal Aerodrome Forecast
Issued by NWS Portland, OR

Home | Current Version | Previous Version | Text Only | Print | Product List | Glossary On
Versions: 1 2 3 4 5 6 7 8 9 10 11 12 13
000
FTUS46 KPQR 222330
TAFHIO
TAF
KHIO 222330Z 2300/2324 03004KT P6SM SKC
     FM230800 33003KT P6SM SCT200 BKN300=

USA.gov is the U.S. government's official web portal to all federal, state and local government web resources and services.